sensor_id;sensor_type;location;lat;lon;timestamp;P1;durP1;ratioP1;P2;durP2;ratioP2
5805;SDS011;2929;50.810;8.342;2023-07-13T00:01:48;4.80;;;2.10;;
5805;SDS011;2929;50.810;8.342;2023-07-13T00:04:18;3.73;;;1.90;;
5805;SDS011;2929;50.810;8.342;2023-07-13T00:06:48;2.00;;;1.63;;
5805;SDS011;2929;50.810;8.342;2023-07-13T00:09:16;4.70;;;2.20;;
5805;SDS011;2929;50.810;8.342;2023-07-13T00:11:44;4.93;;;2.33;;
5805;SDS011;2929;50.810;8.342;2023-07-13T00:14:13;3.20;;;2.40;;
5805;SDS011;2929;50.810;8.342;2023-07-13T00:16:40;3.70;;;1.80;;
5805;SDS011;2929;50.810;8.342;2023-07-13T00:19:09;6.03;;;2.13;;
5805;SDS011;2929;50.810;8.342;2023-07-13T00:21:38;8.30;;;2.30;;
5805;SDS011;2929;50.810;8.342;2023-07-13T00:24:05;4.03;;;1.87;;
5805;SDS011;2929;50.810;8.342;2023-07-13T00:26:32;3.00;;;1.80;;
5805;SDS011;2929;50.810;8.342;2023-07-13T00:29:00;1.57;;;1.47;;
5805;SDS011;2929;50.810;8.342;2023-07-13T00:31:28;3.23;;;1.80;;
5805;SDS011;2929;50.810;8.342;2023-07-13T00:33:55;2.53;;;2.20;;
5805;SDS011;2929;50.810;8.342;2023-07-13T00:36:22;5.40;;;2.30;;
5805;SDS011;2929;50.810;8.342;2023-07-13T00:38:51;3.53;;;2.13;;
5805;SDS011;2929;50.810;8.342;2023-07-13T00:41:18;1.87;;;1.60;;
5805;SDS011;2929;50.810;8.342;2023-07-13T00:43:45;3.30;;;1.80;;
5805;SDS011;2929;50.810;8.342;2023-07-13T00:46:17;2.00;;;1.80;;
5805;SDS011;2929;50.810;8.342;2023-07-13T00:48:48;9.77;;;2.00;;
5805;SDS011;2929;50.810;8.342;2023-07-13T00:51:17;2.93;;;1.80;;
5805;SDS011;2929;50.810;8.342;2023-07-13T00:53:47;6.83;;;1.93;;
5805;SDS011;2929;50.810;8.342;2023-07-13T00:56:15;4.50;;;1.90;;
5805;SDS011;2929;50.810;8.342;2023-07-13T00:58:43;7.20;;;1.90;;
5805;SDS011;2929;50.810;8.342;2023-07-13T01:01:11;3.47;;;1.90;;
5805;SDS011;2929;50.810;8.342;2023-07-13T01:03:38;7.13;;;2.03;;
5805;SDS011;2929;50.810;8.342;2023-07-13T01:06:06;6.20;;;2.30;;
5805;SDS011;2929;50.810;8.342;2023-07-13T01:08:34;8.90;;;2.30;;
5805;SDS011;2929;50.810;8.342;2023-07-13T01:11:01;11.53;;;2.60;;
5805;SDS011;2929;50.810;8.342;2023-07-13T01:13:29;5.13;;;2.13;;
5805;SDS011;2929;50.810;8.342;2023-07-13T01:15:56;4.47;;;1.67;;
5805;SDS011;2929;50.810;8.342;2023-07-13T01:18:27;5.10;;;2.60;;
5805;SDS011;2929;50.810;8.342;2023-07-13T01:20:58;8.57;;;2.20;;
5805;SDS011;2929;50.810;8.342;2023-07-13T01:23:26;8.00;;;2.10;;
5805;SDS011;2929;50.810;8.342;2023-07-13T01:25:55;3.93;;;2.33;;
5805;SDS011;2929;50.810;8.342;2023-07-13T01:28:23;6.00;;;1.60;;
5805;SDS011;2929;50.810;8.342;2023-07-13T01:30:52;3.93;;;1.50;;
5805;SDS011;2929;50.810;8.342;2023-07-13T01:33:20;2.67;;;1.90;;
5805;SDS011;2929;50.810;8.342;2023-07-13T01:35:47;3.37;;;1.60;;
5805;SDS011;2929;50.810;8.342;2023-07-13T01:38:17;1.90;;;1.23;;
5805;SDS011;2929;50.810;8.342;2023-07-13T01:40:45;8.60;;;1.93;;
5805;SDS011;2929;50.810;8.342;2023-07-13T01:43:13;9.73;;;1.97;;
5805;SDS011;2929;50.810;8.342;2023-07-13T01:45:40;3.83;;;1.93;;
5805;SDS011;2929;50.810;8.342;2023-07-13T01:48:09;6.90;;;2.07;;
5805;SDS011;2929;50.810;8.342;2023-07-13T01:50:36;5.67;;;2.10;;
5805;SDS011;2929;50.810;8.342;2023-07-13T01:53:03;2.33;;;1.60;;
5805;SDS011;2929;50.810;8.342;2023-07-13T01:55:32;3.80;;;1.63;;
5805;SDS011;2929;50.810;8.342;2023-07-13T01:58:01;1.90;;;1.70;;
5805;SDS011;2929;50.810;8.342;2023-07-13T02:00:28;4.00;;;1.50;;
5805;SDS011;2929;50.810;8.342;2023-07-13T02:02:55;3.93;;;1.70;;
5805;SDS011;2929;50.810;8.342;2023-07-13T02:05:23;3.90;;;1.70;;
5805;SDS011;2929;50.810;8.342;2023-07-13T02:07:50;7.20;;;1.70;;
5805;SDS011;2929;50.810;8.342;2023-07-13T02:10:18;1.93;;;1.73;;
5805;SDS011;2929;50.810;8.342;2023-07-13T02:12:48;7.00;;;2.00;;
5805;SDS011;2929;50.810;8.342;2023-07-13T02:15:15;4.20;;;1.97;;
5805;SDS011;2929;50.810;8.342;2023-07-13T02:17:43;5.60;;;1.90;;
5805;SDS011;2929;50.810;8.342;2023-07-13T02:20:10;4.60;;;1.77;;
5805;SDS011;2929;50.810;8.342;2023-07-13T02:22:37;3.03;;;1.70;;
5805;SDS011;2929;50.810;8.342;2023-07-13T02:25:04;3.67;;;1.67;;
5805;SDS011;2929;50.810;8.342;2023-07-13T02:27:35;2.30;;;1.73;;
5805;SDS011;2929;50.810;8.342;2023-07-13T02:30:04;3.23;;;2.20;;
5805;SDS011;2929;50.810;8.342;2023-07-13T02:32:32;3.47;;;1.60;;
5805;SDS011;2929;50.810;8.342;2023-07-13T02:35:00;1.90;;;1.57;;
5805;SDS011;2929;50.810;8.342;2023-07-13T02:37:28;4.60;;;1.63;;
5805;SDS011;2929;50.810;8.342;2023-07-13T02:39:55;2.10;;;1.40;;
5805;SDS011;2929;50.810;8.342;2023-07-13T02:42:22;2.80;;;1.80;;
5805;SDS011;2929;50.810;8.342;2023-07-13T02:44:49;4.63;;;1.50;;
5805;SDS011;2929;50.810;8.342;2023-07-13T02:47:18;9.37;;;1.70;;
5805;SDS011;2929;50.810;8.342;2023-07-13T02:49:45;4.60;;;1.73;;
5805;SDS011;2929;50.810;8.342;2023-07-13T02:52:12;4.23;;;1.57;;
5805;SDS011;2929;50.810;8.342;2023-07-13T02:54:38;2.90;;;1.60;;
5805;SDS011;2929;50.810;8.342;2023-07-13T02:57:06;1.80;;;1.70;;
5805;SDS011;2929;50.810;8.342;2023-07-13T02:59:33;3.97;;;2.07;;
5805;SDS011;2929;50.810;8.342;2023-07-13T03:02:00;5.07;;;1.50;;
5805;SDS011;2929;50.810;8.342;2023-07-13T03:04:29;7.40;;;2.20;;
5805;SDS011;2929;50.810;8.342;2023-07-13T03:06:56;3.60;;;1.73;;
5805;SDS011;2929;50.810;8.342;2023-07-13T03:09:28;3.87;;;1.40;;
5805;SDS011;2929;50.810;8.342;2023-07-13T03:11:55;7.20;;;2.10;;
5805;SDS011;2929;50.810;8.342;2023-07-13T03:14:26;1.97;;;1.50;;
5805;SDS011;2929;50.810;8.342;2023-07-13T03:16:53;4.50;;;1.70;;
5805;SDS011;2929;50.810;8.342;2023-07-13T03:19:23;3.40;;;1.73;;
5805;SDS011;2929;50.810;8.342;2023-07-13T03:21:52;5.10;;;1.47;;
5805;SDS011;2929;50.810;8.342;2023-07-13T03:24:19;8.77;;;2.00;;
5805;SDS011;2929;50.810;8.342;2023-07-13T03:26:49;3.30;;;1.90;;
5805;SDS011;2929;50.810;8.342;2023-07-13T03:29:17;7.03;;;1.73;;
5805;SDS011;2929;50.810;8.342;2023-07-13T03:31:44;6.73;;;2.40;;
5805;SDS011;2929;50.810;8.342;2023-07-13T03:34:11;3.33;;;1.80;;
5805;SDS011;2929;50.810;8.342;2023-07-13T03:36:39;1.87;;;1.33;;
5805;SDS011;2929;50.810;8.342;2023-07-13T03:39:11;10.93;;;2.20;;
5805;SDS011;2929;50.810;8.342;2023-07-13T03:41:47;3.73;;;2.23;;
5805;SDS011;2929;50.810;8.342;2023-07-13T03:44:15;3.43;;;2.10;;
5805;SDS011;2929;50.810;8.342;2023-07-13T03:46:43;5.20;;;2.80;;
5805;SDS011;2929;50.810;8.342;2023-07-13T03:49:10;6.60;;;1.60;;
5805;SDS011;2929;50.810;8.342;2023-07-13T03:51:37;6.57;;;3.03;;
5805;SDS011;2929;50.810;8.342;2023-07-13T03:54:04;5.50;;;1.73;;
5805;SDS011;2929;50.810;8.342;2023-07-13T03:56:32;2.80;;;1.60;;
5805;SDS011;2929;50.810;8.342;2023-07-13T03:59:02;11.27;;;2.27;;
5805;SDS011;2929;50.810;8.342;2023-07-13T04:01:29;4.93;;;2.10;;
5805;SDS011;2929;50.810;8.342;2023-07-13T04:03:56;3.60;;;1.77;;
5805;SDS011;2929;50.810;8.342;2023-07-13T04:06:26;8.93;;;1.87;;
5805;SDS011;2929;50.810;8.342;2023-07-13T04:08:55;2.43;;;1.50;;
5805;SDS011;2929;50.810;8.342;2023-07-13T04:11:24;5.97;;;2.20;;
5805;SDS011;2929;50.810;8.342;2023-07-13T04:13:55;5.60;;;2.27;;
5805;SDS011;2929;50.810;8.342;2023-07-13T04:16:22;7.27;;;2.57;;
5805;SDS011;2929;50.810;8.342;2023-07-13T04:18:50;28.17;;;2.47;;
5805;SDS011;2929;50.810;8.342;2023-07-13T04:21:20;8.30;;;2.10;;
5805;SDS011;2929;50.810;8.342;2023-07-13T04:23:47;5.83;;;1.70;;
5805;SDS011;2929;50.810;8.342;2023-07-13T04:26:14;2.93;;;1.60;;
5805;SDS011;2929;50.810;8.342;2023-07-13T04:28:41;8.33;;;2.17;;
5805;SDS011;2929;50.810;8.342;2023-07-13T04:31:09;5.90;;;1.90;;
5805;SDS011;2929;50.810;8.342;2023-07-13T04:33:36;4.97;;;1.77;;
5805;SDS011;2929;50.810;8.342;2023-07-13T04:36:03;10.67;;;1.87;;
5805;SDS011;2929;50.810;8.342;2023-07-13T04:38:32;6.17;;;1.73;;
5805;SDS011;2929;50.810;8.342;2023-07-13T04:41:00;7.80;;;2.00;;
5805;SDS011;2929;50.810;8.342;2023-07-13T04:43:29;5.80;;;2.47;;
5805;SDS011;2929;50.810;8.342;2023-07-13T04:46:02;11.77;;;2.07;;
5805;SDS011;2929;50.810;8.342;2023-07-13T04:48:31;3.33;;;2.10;;
5805;SDS011;2929;50.810;8.342;2023-07-13T04:50:59;6.03;;;2.00;;
5805;SDS011;2929;50.810;8.342;2023-07-13T04:53:27;2.37;;;1.73;;
5805;SDS011;2929;50.810;8.342;2023-07-13T04:55:54;6.97;;;2.10;;
5805;SDS011;2929;50.810;8.342;2023-07-13T04:58:21;3.03;;;1.57;;
5805;SDS011;2929;50.810;8.342;2023-07-13T05:00:48;7.00;;;2.00;;
5805;SDS011;2929;50.810;8.342;2023-07-13T05:03:15;1.70;;;1.60;;
5805;SDS011;2929;50.810;8.342;2023-07-13T05:05:53;8.57;;;2.13;;
5805;SDS011;2929;50.810;8.342;2023-07-13T05:08:21;9.80;;;2.00;;
5805;SDS011;2929;50.810;8.342;2023-07-13T05:10:48;3.33;;;1.80;;
5805;SDS011;2929;50.810;8.342;2023-07-13T05:13:16;3.13;;;1.80;;
5805;SDS011;2929;50.810;8.342;2023-07-13T05:15:43;3.80;;;2.00;;
5805;SDS011;2929;50.810;8.342;2023-07-13T05:18:10;3.70;;;1.80;;
5805;SDS011;2929;50.810;8.342;2023-07-13T05:20:37;6.53;;;1.87;;
5805;SDS011;2929;50.810;8.342;2023-07-13T05:23:06;5.73;;;1.70;;
5805;SDS011;2929;50.810;8.342;2023-07-13T05:25:33;4.70;;;2.30;;
5805;SDS011;2929;50.810;8.342;2023-07-13T05:28:00;5.47;;;2.10;;
5805;SDS011;2929;50.810;8.342;2023-07-13T05:30:27;6.57;;;1.83;;
5805;SDS011;2929;50.810;8.342;2023-07-13T05:32:54;3.33;;;1.80;;
5805;SDS011;2929;50.810;8.342;2023-07-13T05:35:20;6.50;;;2.03;;
5805;SDS011;2929;50.810;8.342;2023-07-13T05:37:47;7.00;;;2.30;;
5805;SDS011;2929;50.810;8.342;2023-07-13T05:40:15;4.40;;;2.13;;
5805;SDS011;2929;50.810;8.342;2023-07-13T05:42:42;5.50;;;2.10;;
5805;SDS011;2929;50.810;8.342;2023-07-13T05:45:09;3.60;;;1.87;;
5805;SDS011;2929;50.810;8.342;2023-07-13T05:47:36;5.40;;;1.60;;
5805;SDS011;2929;50.810;8.342;2023-07-13T05:50:04;2.73;;;1.50;;
5805;SDS011;2929;50.810;8.342;2023-07-13T05:52:31;3.53;;;1.43;;
5805;SDS011;2929;50.810;8.342;2023-07-13T05:54:58;10.20;;;1.40;;
5805;SDS011;2929;50.810;8.342;2023-07-13T05:57:26;4.50;;;1.70;;
5805;SDS011;2929;50.810;8.342;2023-07-13T05:59:53;11.53;;;1.60;;
5805;SDS011;2929;50.810;8.342;2023-07-13T06:02:23;8.10;;;1.67;;
5805;SDS011;2929;50.810;8.342;2023-07-13T06:04:50;16.73;;;2.63;;
5805;SDS011;2929;50.810;8.342;2023-07-13T06:07:17;5.40;;;1.23;;
5805;SDS011;2929;50.810;8.342;2023-07-13T06:09:44;3.80;;;1.40;;
5805;SDS011;2929;50.810;8.342;2023-07-13T06:12:11;8.10;;;1.37;;
5805;SDS011;2929;50.810;8.342;2023-07-13T06:14:39;4.40;;;1.50;;
5805;SDS011;2929;50.810;8.342;2023-07-13T06:17:07;1.87;;;0.90;;
5805;SDS011;2929;50.810;8.342;2023-07-13T06:19:34;6.63;;;1.30;;
5805;SDS011;2929;50.810;8.342;2023-07-13T06:22:01;5.87;;;1.77;;
5805;SDS011;2929;50.810;8.342;2023-07-13T06:24:28;4.83;;;1.30;;
5805;SDS011;2929;50.810;8.342;2023-07-13T06:26:58;4.70;;;1.30;;
5805;SDS011;2929;50.810;8.342;2023-07-13T06:29:25;5.83;;;1.60;;
5805;SDS011;2929;50.810;8.342;2023-07-13T06:31:53;5.60;;;1.30;;
5805;SDS011;2929;50.810;8.342;2023-07-13T06:34:20;2.30;;;1.27;;
5805;SDS011;2929;50.810;8.342;2023-07-13T06:36:48;3.03;;;1.40;;
5805;SDS011;2929;50.810;8.342;2023-07-13T06:39:15;4.07;;;1.23;;
5805;SDS011;2929;50.810;8.342;2023-07-13T06:41:42;2.73;;;1.10;;
5805;SDS011;2929;50.810;8.342;2023-07-13T06:44:12;2.00;;;1.13;;
5805;SDS011;2929;50.810;8.342;2023-07-13T06:46:39;3.53;;;1.20;;
5805;SDS011;2929;50.810;8.342;2023-07-13T06:49:08;6.13;;;1.87;;
5805;SDS011;2929;50.810;8.342;2023-07-13T06:51:35;3.73;;;1.20;;
5805;SDS011;2929;50.810;8.342;2023-07-13T06:54:02;3.80;;;1.20;;
5805;SDS011;2929;50.810;8.342;2023-07-13T06:56:30;3.37;;;1.33;;
5805;SDS011;2929;50.810;8.342;2023-07-13T06:58:57;3.50;;;1.40;;
5805;SDS011;2929;50.810;8.342;2023-07-13T07:01:23;2.40;;;1.33;;
5805;SDS011;2929;50.810;8.342;2023-07-13T07:03:50;5.47;;;1.20;;
5805;SDS011;2929;50.810;8.342;2023-07-13T07:06:29;1.80;;;0.97;;
5805;SDS011;2929;50.810;8.342;2023-07-13T07:08:56;4.27;;;1.37;;
5805;SDS011;2929;50.810;8.342;2023-07-13T07:11:24;4.17;;;1.43;;
5805;SDS011;2929;50.810;8.342;2023-07-13T07:13:52;5.90;;;1.40;;
5805;SDS011;2929;50.810;8.342;2023-07-13T07:16:20;2.30;;;1.30;;
5805;SDS011;2929;50.810;8.342;2023-07-13T07:18:48;2.90;;;1.07;;
5805;SDS011;2929;50.810;8.342;2023-07-13T07:21:18;3.60;;;1.13;;
5805;SDS011;2929;50.810;8.342;2023-07-13T07:23:46;4.07;;;1.40;;
5805;SDS011;2929;50.810;8.342;2023-07-13T07:26:13;8.77;;;0.97;;
5805;SDS011;2929;50.810;8.342;2023-07-13T07:28:40;2.10;;;0.90;;
5805;SDS011;2929;50.810;8.342;2023-07-13T07:31:07;3.17;;;1.20;;
5805;SDS011;2929;50.810;8.342;2023-07-13T07:33:35;2.80;;;1.07;;
5805;SDS011;2929;50.810;8.342;2023-07-13T07:36:02;4.70;;;1.30;;
5805;SDS011;2929;50.810;8.342;2023-07-13T07:38:29;5.87;;;1.30;;
5805;SDS011;2929;50.810;8.342;2023-07-13T07:41:00;2.60;;;1.27;;
5805;SDS011;2929;50.810;8.342;2023-07-13T07:43:29;6.50;;;1.20;;
5805;SDS011;2929;50.810;8.342;2023-07-13T07:45:56;4.93;;;1.30;;
5805;SDS011;2929;50.810;8.342;2023-07-13T07:48:23;4.10;;;1.20;;
5805;SDS011;2929;50.810;8.342;2023-07-13T07:50:50;1.23;;;0.97;;
5805;SDS011;2929;50.810;8.342;2023-07-13T07:53:17;3.17;;;1.40;;
5805;SDS011;2929;50.810;8.342;2023-07-13T07:55:44;5.30;;;0.87;;
5805;SDS011;2929;50.810;8.342;2023-07-13T07:58:13;7.90;;;1.60;;
5805;SDS011;2929;50.810;8.342;2023-07-13T08:00:40;2.43;;;0.97;;
5805;SDS011;2929;50.810;8.342;2023-07-13T08:03:06;4.13;;;1.10;;
5805;SDS011;2929;50.810;8.342;2023-07-13T08:05:39;2.70;;;1.07;;
5805;SDS011;2929;50.810;8.342;2023-07-13T08:11:29;3.90;;;1.20;;
5805;SDS011;2929;50.810;8.342;2023-07-13T08:14:19;2.97;;;1.10;;
5805;SDS011;2929;50.810;8.342;2023-07-13T08:16:46;2.53;;;0.80;;
5805;SDS011;2929;50.810;8.342;2023-07-13T08:19:13;2.40;;;1.10;;
5805;SDS011;2929;50.810;8.342;2023-07-13T08:21:40;1.73;;;0.80;;
5805;SDS011;2929;50.810;8.342;2023-07-13T08:24:08;3.20;;;0.83;;
5805;SDS011;2929;50.810;8.342;2023-07-13T08:26:35;2.80;;;1.10;;
5805;SDS011;2929;50.810;8.342;2023-07-13T08:29:02;3.10;;;0.90;;
5805;SDS011;2929;50.810;8.342;2023-07-13T08:31:30;3.50;;;1.00;;
5805;SDS011;2929;50.810;8.342;2023-07-13T08:33:57;4.00;;;0.90;;
5805;SDS011;2929;50.810;8.342;2023-07-13T08:36:25;2.03;;;1.00;;
5805;SDS011;2929;50.810;8.342;2023-07-13T08:38:53;2.70;;;1.00;;
5805;SDS011;2929;50.810;8.342;2023-07-13T08:41:20;0.70;;;0.70;;
5805;SDS011;2929;50.810;8.342;2023-07-13T08:43:47;2.03;;;0.77;;
5805;SDS011;2929;50.810;8.342;2023-07-13T08:46:18;2.73;;;0.93;;
5805;SDS011;2929;50.810;8.342;2023-07-13T08:48:49;2.20;;;0.90;;
5805;SDS011;2929;50.810;8.342;2023-07-13T08:54:11;2.57;;;0.80;;
5805;SDS011;2929;50.810;8.342;2023-07-13T08:56:45;3.50;;;1.07;;
5805;SDS011;2929;50.810;8.342;2023-07-13T08:59:14;1.17;;;0.90;;
5805;SDS011;2929;50.810;8.342;2023-07-13T09:01:56;3.80;;;1.00;;
5805;SDS011;2929;50.810;8.342;2023-07-13T09:04:42;2.60;;;0.77;;
5805;SDS011;2929;50.810;8.342;2023-07-13T09:07:14;3.53;;;0.97;;
5805;SDS011;2929;50.810;8.342;2023-07-13T09:09:53;0.93;;;0.80;;
5805;SDS011;2929;50.810;8.342;2023-07-13T09:12:38;3.17;;;1.00;;
5805;SDS011;2929;50.810;8.342;2023-07-13T09:15:17;2.53;;;1.00;;
5805;SDS011;2929;50.810;8.342;2023-07-13T09:17:51;2.10;;;1.30;;
5805;SDS011;2929;50.810;8.342;2023-07-13T09:20:23;2.10;;;0.80;;
5805;SDS011;2929;50.810;8.342;2023-07-13T09:22:53;1.70;;;0.83;;
5805;SDS011;2929;50.810;8.342;2023-07-13T09:25:23;3.07;;;1.00;;
5805;SDS011;2929;50.810;8.342;2023-07-13T09:27:56;3.80;;;1.00;;
5805;SDS011;2929;50.810;8.342;2023-07-13T09:30:30;2.03;;;0.80;;
5805;SDS011;2929;50.810;8.342;2023-07-13T09:32:59;2.53;;;0.90;;
5805;SDS011;2929;50.810;8.342;2023-07-13T09:35:28;1.53;;;0.80;;
5805;SDS011;2929;50.810;8.342;2023-07-13T09:38:01;5.83;;;1.20;;
5805;SDS011;2929;50.810;8.342;2023-07-13T09:40:40;2.20;;;0.90;;
5805;SDS011;2929;50.810;8.342;2023-07-13T09:43:14;1.63;;;1.03;;
5805;SDS011;2929;50.810;8.342;2023-07-13T09:45:44;2.20;;;1.10;;
5805;SDS011;2929;50.810;8.342;2023-07-13T09:48:16;1.27;;;0.97;;
5805;SDS011;2929;50.810;8.342;2023-07-13T09:50:46;1.93;;;1.00;;
5805;SDS011;2929;50.810;8.342;2023-07-13T09:53:13;4.27;;;1.23;;
5805;SDS011;2929;50.810;8.342;2023-07-13T09:55:41;3.27;;;1.00;;
5805;SDS011;2929;50.810;8.342;2023-07-13T09:58:11;2.70;;;1.13;;
5805;SDS011;2929;50.810;8.342;2023-07-13T10:00:40;3.30;;;1.20;;
5805;SDS011;2929;50.810;8.342;2023-07-13T10:03:17;0.90;;;0.90;;
5805;SDS011;2929;50.810;8.342;2023-07-13T10:05:48;2.10;;;1.00;;
5805;SDS011;2929;50.810;8.342;2023-07-13T10:08:18;2.10;;;1.37;;
5805;SDS011;2929;50.810;8.342;2023-07-13T10:10:53;2.17;;;0.97;;
5805;SDS011;2929;50.810;8.342;2023-07-13T10:13:28;1.27;;;1.03;;
5805;SDS011;2929;50.810;8.342;2023-07-13T10:15:57;2.60;;;0.97;;
5805;SDS011;2929;50.810;8.342;2023-07-13T10:18:25;0.97;;;0.83;;
5805;SDS011;2929;50.810;8.342;2023-07-13T10:20:58;2.20;;;0.93;;
5805;SDS011;2929;50.810;8.342;2023-07-13T10:23:35;1.03;;;1.03;;
5805;SDS011;2929;50.810;8.342;2023-07-13T10:26:04;1.27;;;1.10;;
5805;SDS011;2929;50.810;8.342;2023-07-13T10:28:36;2.00;;;1.20;;
5805;SDS011;2929;50.810;8.342;2023-07-13T10:31:04;4.50;;;1.10;;
5805;SDS011;2929;50.810;8.342;2023-07-13T10:33:37;3.80;;;1.10;;
5805;SDS011;2929;50.810;8.342;2023-07-13T10:36:17;1.03;;;0.93;;
5805;SDS011;2929;50.810;8.342;2023-07-13T10:38:53;3.00;;;1.07;;
5805;SDS011;2929;50.810;8.342;2023-07-13T10:41:23;2.10;;;1.00;;
5805;SDS011;2929;50.810;8.342;2023-07-13T10:43:53;4.93;;;0.90;;
5805;SDS011;2929;50.810;8.342;2023-07-13T10:46:22;6.00;;;1.57;;
5805;SDS011;2929;50.810;8.342;2023-07-13T10:48:53;4.73;;;0.90;;
5805;SDS011;2929;50.810;8.342;2023-07-13T10:51:25;4.00;;;1.20;;
5805;SDS011;2929;50.810;8.342;2023-07-13T10:57:07;2.63;;;1.00;;
5805;SDS011;2929;50.810;8.342;2023-07-13T10:59:43;1.70;;;1.00;;
5805;SDS011;2929;50.810;8.342;2023-07-13T11:05:01;1.63;;;0.70;;
5805;SDS011;2929;50.810;8.342;2023-07-13T11:07:54;2.53;;;0.90;;
5805;SDS011;2929;50.810;8.342;2023-07-13T11:10:47;3.33;;;0.80;;
5805;SDS011;2929;50.810;8.342;2023-07-13T11:13:36;2.10;;;1.00;;
5805;SDS011;2929;50.810;8.342;2023-07-13T11:19:18;1.50;;;0.93;;
5805;SDS011;2929;50.810;8.342;2023-07-13T11:22:02;1.87;;;0.87;;
5805;SDS011;2929;50.810;8.342;2023-07-13T11:24:56;2.10;;;1.37;;
5805;SDS011;2929;50.810;8.342;2023-07-13T11:27:36;2.63;;;1.23;;
5805;SDS011;2929;50.810;8.342;2023-07-13T11:30:21;1.83;;;1.10;;
5805;SDS011;2929;50.810;8.342;2023-07-13T11:32:50;1.27;;;0.80;;
5805;SDS011;2929;50.810;8.342;2023-07-13T11:35:31;5.03;;;1.10;;
5805;SDS011;2929;50.810;8.342;2023-07-13T11:38:01;2.10;;;1.43;;
5805;SDS011;2929;50.810;8.342;2023-07-13T11:40:31;11.50;;;2.10;;
5805;SDS011;2929;50.810;8.342;2023-07-13T11:42:59;5.57;;;1.03;;
5805;SDS011;2929;50.810;8.342;2023-07-13T11:45:26;3.07;;;1.13;;
5805;SDS011;2929;50.810;8.342;2023-07-13T11:47:54;3.73;;;0.90;;
5805;SDS011;2929;50.810;8.342;2023-07-13T11:50:23;2.03;;;1.20;;
5805;SDS011;2929;50.810;8.342;2023-07-13T11:52:50;3.60;;;1.03;;
5805;SDS011;2929;50.810;8.342;2023-07-13T11:55:21;2.97;;;1.00;;
5805;SDS011;2929;50.810;8.342;2023-07-13T11:57:54;3.50;;;1.07;;
5805;SDS011;2929;50.810;8.342;2023-07-13T12:00:25;1.83;;;1.10;;
5805;SDS011;2929;50.810;8.342;2023-07-13T12:02:55;2.87;;;0.90;;
5805;SDS011;2929;50.810;8.342;2023-07-13T12:05:25;2.07;;;1.07;;
5805;SDS011;2929;50.810;8.342;2023-07-13T12:07:53;3.27;;;1.30;;
5805;SDS011;2929;50.810;8.342;2023-07-13T12:10:21;1.13;;;1.03;;
5805;SDS011;2929;50.810;8.342;2023-07-13T12:12:53;4.07;;;1.40;;
5805;SDS011;2929;50.810;8.342;2023-07-13T12:15:22;2.23;;;1.00;;
5805;SDS011;2929;50.810;8.342;2023-07-13T12:17:53;2.50;;;1.03;;
5805;SDS011;2929;50.810;8.342;2023-07-13T12:20:22;2.10;;;0.97;;
5805;SDS011;2929;50.810;8.342;2023-07-13T12:22:51;4.57;;;1.87;;
5805;SDS011;2929;50.810;8.342;2023-07-13T12:25:19;1.83;;;1.00;;
5805;SDS011;2929;50.810;8.342;2023-07-13T12:27:48;1.73;;;1.00;;
5805;SDS011;2929;50.810;8.342;2023-07-13T12:30:27;3.03;;;0.90;;
5805;SDS011;2929;50.810;8.342;2023-07-13T12:32:59;2.37;;;0.90;;
5805;SDS011;2929;50.810;8.342;2023-07-13T12:35:28;2.70;;;1.07;;
5805;SDS011;2929;50.810;8.342;2023-07-13T12:38:00;3.70;;;1.00;;
5805;SDS011;2929;50.810;8.342;2023-07-13T12:40:31;3.53;;;1.00;;
5805;SDS011;2929;50.810;8.342;2023-07-13T12:43:00;2.77;;;1.03;;
5805;SDS011;2929;50.810;8.342;2023-07-13T12:45:30;2.33;;;0.97;;
5805;SDS011;2929;50.810;8.342;2023-07-13T12:47:58;3.17;;;1.20;;
5805;SDS011;2929;50.810;8.342;2023-07-13T12:50:34;1.77;;;1.10;;
5805;SDS011;2929;50.810;8.342;2023-07-13T12:53:06;1.67;;;1.00;;
5805;SDS011;2929;50.810;8.342;2023-07-13T12:55:40;2.57;;;1.00;;
5805;SDS011;2929;50.810;8.342;2023-07-13T12:58:09;2.00;;;1.20;;
5805;SDS011;2929;50.810;8.342;2023-07-13T13:00:47;3.37;;;1.10;;
5805;SDS011;2929;50.810;8.342;2023-07-13T13:03:21;1.37;;;1.27;;
5805;SDS011;2929;50.810;8.342;2023-07-13T13:06:02;3.33;;;1.13;;
5805;SDS011;2929;50.810;8.342;2023-07-13T13:08:30;14.00;;;1.30;;
5805;SDS011;2929;50.810;8.342;2023-07-13T13:10:58;3.23;;;1.00;;
5805;SDS011;2929;50.810;8.342;2023-07-13T13:13:25;2.77;;;1.20;;
5805;SDS011;2929;50.810;8.342;2023-07-13T13:15:53;5.37;;;1.50;;
5805;SDS011;2929;50.810;8.342;2023-07-13T13:18:23;5.53;;;1.60;;
5805;SDS011;2929;50.810;8.342;2023-07-13T13:20:50;5.80;;;1.20;;
5805;SDS011;2929;50.810;8.342;2023-07-13T13:23:18;4.40;;;1.17;;
5805;SDS011;2929;50.810;8.342;2023-07-13T13:25:50;3.20;;;1.20;;
5805;SDS011;2929;50.810;8.342;2023-07-13T13:28:17;4.97;;;1.30;;
5805;SDS011;2929;50.810;8.342;2023-07-13T13:30:46;1.33;;;1.10;;
5805;SDS011;2929;50.810;8.342;2023-07-13T13:33:17;5.70;;;1.37;;
5805;SDS011;2929;50.810;8.342;2023-07-13T13:35:46;1.83;;;1.10;;
5805;SDS011;2929;50.810;8.342;2023-07-13T13:38:14;4.20;;;1.10;;
5805;SDS011;2929;50.810;8.342;2023-07-13T13:40:58;5.97;;;1.67;;
5805;SDS011;2929;50.810;8.342;2023-07-13T13:43:25;3.53;;;1.53;;
5805;SDS011;2929;50.810;8.342;2023-07-13T13:45:53;1.70;;;1.30;;
5805;SDS011;2929;50.810;8.342;2023-07-13T13:48:29;13.80;;;1.87;;
5805;SDS011;2929;50.810;8.342;2023-07-13T13:50:57;3.43;;;1.40;;
5805;SDS011;2929;50.810;8.342;2023-07-13T13:53:25;2.70;;;1.27;;
5805;SDS011;2929;50.810;8.342;2023-07-13T13:55:53;2.63;;;1.33;;
5805;SDS011;2929;50.810;8.342;2023-07-13T13:58:20;3.97;;;1.50;;
5805;SDS011;2929;50.810;8.342;2023-07-13T14:00:47;1.53;;;0.97;;
5805;SDS011;2929;50.810;8.342;2023-07-13T14:03:15;2.30;;;1.30;;
5805;SDS011;2929;50.810;8.342;2023-07-13T14:05:47;2.97;;;1.17;;
5805;SDS011;2929;50.810;8.342;2023-07-13T14:08:16;3.30;;;1.10;;
5805;SDS011;2929;50.810;8.342;2023-07-13T14:10:45;2.20;;;0.93;;
5805;SDS011;2929;50.810;8.342;2023-07-13T14:13:16;2.97;;;1.30;;
5805;SDS011;2929;50.810;8.342;2023-07-13T14:15:44;5.80;;;1.30;;
5805;SDS011;2929;50.810;8.342;2023-07-13T14:18:11;3.53;;;1.40;;
5805;SDS011;2929;50.810;8.342;2023-07-13T14:20:43;5.97;;;1.97;;
5805;SDS011;2929;50.810;8.342;2023-07-13T14:23:11;5.43;;;1.43;;
5805;SDS011;2929;50.810;8.342;2023-07-13T14:25:39;4.30;;;1.53;;
5805;SDS011;2929;50.810;8.342;2023-07-13T14:28:11;4.03;;;1.33;;
5805;SDS011;2929;50.810;8.342;2023-07-13T14:30:47;1.73;;;1.20;;
5805;SDS011;2929;50.810;8.342;2023-07-13T14:33:14;1.33;;;1.23;;
5805;SDS011;2929;50.810;8.342;2023-07-13T14:35:41;2.53;;;1.10;;
5805;SDS011;2929;50.810;8.342;2023-07-13T14:38:08;3.23;;;1.27;;
5805;SDS011;2929;50.810;8.342;2023-07-13T14:40:39;3.30;;;1.40;;
5805;SDS011;2929;50.810;8.342;2023-07-13T14:43:08;3.73;;;1.33;;
5805;SDS011;2929;50.810;8.342;2023-07-13T14:45:38;3.20;;;1.13;;
5805;SDS011;2929;50.810;8.342;2023-07-13T14:48:16;2.50;;;1.40;;
5805;SDS011;2929;50.810;8.342;2023-07-13T14:50:46;3.00;;;1.07;;
5805;SDS011;2929;50.810;8.342;2023-07-13T14:53:14;4.53;;;1.13;;
5805;SDS011;2929;50.810;8.342;2023-07-13T14:55:41;2.37;;;1.00;;
5805;SDS011;2929;50.810;8.342;2023-07-13T14:58:08;1.67;;;1.10;;
5805;SDS011;2929;50.810;8.342;2023-07-13T15:00:35;3.47;;;1.10;;
5805;SDS011;2929;50.810;8.342;2023-07-13T15:03:03;3.87;;;1.20;;
5805;SDS011;2929;50.810;8.342;2023-07-13T15:05:31;3.03;;;1.00;;
5805;SDS011;2929;50.810;8.342;2023-07-13T15:08:04;3.90;;;1.13;;
5805;SDS011;2929;50.810;8.342;2023-07-13T15:10:33;4.00;;;1.20;;
5805;SDS011;2929;50.810;8.342;2023-07-13T15:13:01;1.23;;;1.00;;
5805;SDS011;2929;50.810;8.342;2023-07-13T15:15:40;3.73;;;1.20;;
5805;SDS011;2929;50.810;8.342;2023-07-13T15:18:09;1.37;;;0.97;;
5805;SDS011;2929;50.810;8.342;2023-07-13T15:20:38;3.73;;;1.30;;
5805;SDS011;2929;50.810;8.342;2023-07-13T15:23:05;1.93;;;1.10;;
5805;SDS011;2929;50.810;8.342;2023-07-13T15:25:33;2.20;;;0.90;;
5805;SDS011;2929;50.810;8.342;2023-07-13T15:28:01;2.10;;;1.07;;
5805;SDS011;2929;50.810;8.342;2023-07-13T15:30:29;1.43;;;1.03;;
5805;SDS011;2929;50.810;8.342;2023-07-13T15:33:00;1.40;;;1.30;;
5805;SDS011;2929;50.810;8.342;2023-07-13T15:35:36;1.23;;;0.93;;
5805;SDS011;2929;50.810;8.342;2023-07-13T15:38:05;5.70;;;1.23;;
5805;SDS011;2929;50.810;8.342;2023-07-13T15:40:40;3.60;;;1.40;;
5805;SDS011;2929;50.810;8.342;2023-07-13T15:43:09;2.60;;;0.93;;
5805;SDS011;2929;50.810;8.342;2023-07-13T15:45:38;1.80;;;1.03;;